Terminal Aerodrome Forecast
Issued by NWS

Home | Current Version | Previous Version | Text Only | Print | Product List | Glossary On
Versions: 1 2 3 4 5 6 7 8 9 10 11 12 13
000
FTUS44 KTSA 311700
TAFFYV
TAF
KFYV 311725Z 3118/0118 18009KT P6SM SCT110 OVC150
     FM010000 16008KT P6SM OVC080
     FM010600 17012KT P6SM -RA OVC050
     FM010900 20010KT 3SM RA BR OVC015
     FM011200 22007KT 2SM RA BR OVC007=

USA.gov is the U.S. government's official web portal to all federal, state and local government web resources and services.